sensor_id;sensor_type;location;lat;lon;timestamp;temperature;humidity
7174;DHT22;3628;48.654;8.932;2023-03-01T00:02:01;-1.70;99.90
7174;DHT22;3628;48.654;8.932;2023-03-01T00:04:26;-1.70;99.90
7174;DHT22;3628;48.654;8.932;2023-03-01T00:06:53;-1.80;99.90
7174;DHT22;3628;48.654;8.932;2023-03-01T00:09:18;-1.80;99.90
7174;DHT22;3628;48.654;8.932;2023-03-01T00:11:44;-1.90;99.90
7174;DHT22;3628;48.654;8.932;2023-03-01T00:14:10;-1.80;99.90
7174;DHT22;3628;48.654;8.932;2023-03-01T00:16:41;-1.80;99.90
7174;DHT22;3628;48.654;8.932;2023-03-01T00:19:08;-1.80;99.90
7174;DHT22;3628;48.654;8.932;2023-03-01T00:21:35;-1.90;99.90
7174;DHT22;3628;48.654;8.932;2023-03-01T00:24:01;-1.90;99.90
7174;DHT22;3628;48.654;8.932;2023-03-01T00:26:26;-2.00;99.90
7174;DHT22;3628;48.654;8.932;2023-03-01T00:28:53;-2.00;99.90
7174;DHT22;3628;48.654;8.932;2023-03-01T00:31:25;-2.00;99.90
7174;DHT22;3628;48.654;8.932;2023-03-01T00:33:59;-2.10;99.90
7174;DHT22;3628;48.654;8.932;2023-03-01T00:36:28;-2.10;99.90
7174;DHT22;3628;48.654;8.932;2023-03-01T00:38:55;-2.10;99.90
7174;DHT22;3628;48.654;8.932;2023-03-01T00:41:21;-2.10;99.90
7174;DHT22;3628;48.654;8.932;2023-03-01T00:43:48;-2.10;99.90
7174;DHT22;3628;48.654;8.932;2023-03-01T00:46:16;-2.10;99.90
7174;DHT22;3628;48.654;8.932;2023-03-01T00:48:42;-2.10;99.90
7174;DHT22;3628;48.654;8.932;2023-03-01T00:53:39;-2.10;99.90
7174;DHT22;3628;48.654;8.932;2023-03-01T00:56:06;-2.20;99.90
7174;DHT22;3628;48.654;8.932;2023-03-01T00:58:32;-2.30;99.90
7174;DHT22;3628;48.654;8.932;2023-03-01T01:00:57;-2.40;99.90
7174;DHT22;3628;48.654;8.932;2023-03-01T01:03:23;-2.40;99.90
7174;DHT22;3628;48.654;8.932;2023-03-01T01:05:51;-2.40;99.90
7174;DHT22;3628;48.654;8.932;2023-03-01T01:08:17;-2.40;99.90
7174;DHT22;3628;48.654;8.932;2023-03-01T01:10:44;-2.40;99.90
7174;DHT22;3628;48.654;8.932;2023-03-01T01:13:10;-2.40;99.90
7174;DHT22;3628;48.654;8.932;2023-03-01T01:15:36;-2.40;99.90
7174;DHT22;3628;48.654;8.932;2023-03-01T01:18:02;-2.40;99.90
7174;DHT22;3628;48.654;8.932;2023-03-01T01:20:28;-2.40;99.90
7174;DHT22;3628;48.654;8.932;2023-03-01T01:22:53;-2.50;99.90
7174;DHT22;3628;48.654;8.932;2023-03-01T01:25:19;-2.50;99.90
7174;DHT22;3628;48.654;8.932;2023-03-01T01:27:44;-2.50;99.90
7174;DHT22;3628;48.654;8.932;2023-03-01T01:30:11;-2.50;99.90
7174;DHT22;3628;48.654;8.932;2023-03-01T01:32:36;-2.50;99.90
7174;DHT22;3628;48.654;8.932;2023-03-01T01:35:02;-2.60;99.90
7174;DHT22;3628;48.654;8.932;2023-03-01T01:37:28;-2.60;99.90
7174;DHT22;3628;48.654;8.932;2023-03-01T01:40:00;-2.60;99.90
7174;DHT22;3628;48.654;8.932;2023-03-01T01:42:27;-2.60;99.90
7174;DHT22;3628;48.654;8.932;2023-03-01T01:45:28;-2.60;99.90
7174;DHT22;3628;48.654;8.932;2023-03-01T01:50:22;-2.80;99.90
7174;DHT22;3628;48.654;8.932;2023-03-01T01:52:49;-2.80;99.90
7174;DHT22;3628;48.654;8.932;2023-03-01T01:55:18;-2.80;99.90
7174;DHT22;3628;48.654;8.932;2023-03-01T01:57:49;-2.90;99.90
7174;DHT22;3628;48.654;8.932;2023-03-01T02:00:19;-2.90;99.90
7174;DHT22;3628;48.654;8.932;2023-03-01T02:02:47;-2.90;99.90
7174;DHT22;3628;48.654;8.932;2023-03-01T02:05:36;-3.00;99.90
7174;DHT22;3628;48.654;8.932;2023-03-01T02:08:00;-3.00;99.90
7174;DHT22;3628;48.654;8.932;2023-03-01T02:10:26;-2.90;99.90
7174;DHT22;3628;48.654;8.932;2023-03-01T02:12:53;-2.80;99.90
7174;DHT22;3628;48.654;8.932;2023-03-01T02:15:19;-2.80;99.90
7174;DHT22;3628;48.654;8.932;2023-03-01T02:17:45;-2.70;99.90
7174;DHT22;3628;48.654;8.932;2023-03-01T02:20:23;-2.70;99.90
7174;DHT22;3628;48.654;8.932;2023-03-01T02:22:52;-2.60;99.90
7174;DHT22;3628;48.654;8.932;2023-03-01T02:25:45;-2.60;99.90
7174;DHT22;3628;48.654;8.932;2023-03-01T02:30:46;-2.40;99.90
7174;DHT22;3628;48.654;8.932;2023-03-01T02:33:33;-2.30;99.90
7174;DHT22;3628;48.654;8.932;2023-03-01T02:36:00;-2.20;99.90
7174;DHT22;3628;48.654;8.932;2023-03-01T02:38:27;-2.10;99.90
7174;DHT22;3628;48.654;8.932;2023-03-01T02:40:54;-2.00;99.90
7174;DHT22;3628;48.654;8.932;2023-03-01T02:43:23;-1.90;99.90
7174;DHT22;3628;48.654;8.932;2023-03-01T02:45:52;-1.80;99.90
7174;DHT22;3628;48.654;8.932;2023-03-01T02:48:19;-1.70;99.90
7174;DHT22;3628;48.654;8.932;2023-03-01T02:53:19;-1.60;99.90
7174;DHT22;3628;48.654;8.932;2023-03-01T02:55:46;-1.50;99.90
7174;DHT22;3628;48.654;8.932;2023-03-01T02:58:12;-1.50;99.90
7174;DHT22;3628;48.654;8.932;2023-03-01T03:00:42;-1.50;99.90
7174;DHT22;3628;48.654;8.932;2023-03-01T03:03:16;-1.50;99.90
7174;DHT22;3628;48.654;8.932;2023-03-01T03:05:42;-1.40;99.90
7174;DHT22;3628;48.654;8.932;2023-03-01T03:08:08;-1.50;99.90
7174;DHT22;3628;48.654;8.932;2023-03-01T03:10:39;-1.50;99.90
7174;DHT22;3628;48.654;8.932;2023-03-01T03:13:14;-1.40;99.90
7174;DHT22;3628;48.654;8.932;2023-03-01T03:15:42;-1.40;99.90
7174;DHT22;3628;48.654;8.932;2023-03-01T03:18:13;-1.30;99.90
7174;DHT22;3628;48.654;8.932;2023-03-01T03:20:41;-1.30;99.90
7174;DHT22;3628;48.654;8.932;2023-03-01T03:23:07;-1.30;99.90
7174;DHT22;3628;48.654;8.932;2023-03-01T03:25:32;-1.30;99.90
7174;DHT22;3628;48.654;8.932;2023-03-01T03:27:58;-1.30;99.90
7174;DHT22;3628;48.654;8.932;2023-03-01T03:30:31;-1.30;99.90
7174;DHT22;3628;48.654;8.932;2023-03-01T03:32:58;-1.30;99.90
7174;DHT22;3628;48.654;8.932;2023-03-01T03:35:32;-1.30;99.90
7174;DHT22;3628;48.654;8.932;2023-03-01T03:37:59;-1.20;99.90
7174;DHT22;3628;48.654;8.932;2023-03-01T03:40:35;-1.20;99.90
7174;DHT22;3628;48.654;8.932;2023-03-01T03:43:02;-1.20;99.90
7174;DHT22;3628;48.654;8.932;2023-03-01T03:45:28;-1.10;99.90
7174;DHT22;3628;48.654;8.932;2023-03-01T03:47:53;-1.20;99.90
7174;DHT22;3628;48.654;8.932;2023-03-01T03:50:19;-1.20;99.90
7174;DHT22;3628;48.654;8.932;2023-03-01T03:52:45;-1.20;99.90
7174;DHT22;3628;48.654;8.932;2023-03-01T03:55:11;-1.20;99.90
7174;DHT22;3628;48.654;8.932;2023-03-01T03:57:41;-1.30;99.90
7174;DHT22;3628;48.654;8.932;2023-03-01T04:00:09;-1.30;99.90
7174;DHT22;3628;48.654;8.932;2023-03-01T04:02:41;-1.30;99.90
7174;DHT22;3628;48.654;8.932;2023-03-01T04:05:08;-1.40;99.90
7174;DHT22;3628;48.654;8.932;2023-03-01T04:07:35;-1.30;99.90
7174;DHT22;3628;48.654;8.932;2023-03-01T04:10:02;-1.40;99.90
7174;DHT22;3628;48.654;8.932;2023-03-01T04:12:28;-1.30;99.90
7174;DHT22;3628;48.654;8.932;2023-03-01T04:14:54;-1.30;99.90
7174;DHT22;3628;48.654;8.932;2023-03-01T04:17:19;-1.20;99.90
7174;DHT22;3628;48.654;8.932;2023-03-01T04:19:45;-1.20;99.90
7174;DHT22;3628;48.654;8.932;2023-03-01T04:22:14;-1.20;99.90
7174;DHT22;3628;48.654;8.932;2023-03-01T04:24:44;-1.20;99.90
7174;DHT22;3628;48.654;8.932;2023-03-01T04:27:10;-1.10;99.90
7174;DHT22;3628;48.654;8.932;2023-03-01T04:29:36;-1.10;99.90
7174;DHT22;3628;48.654;8.932;2023-03-01T04:32:01;-1.00;99.90
7174;DHT22;3628;48.654;8.932;2023-03-01T04:34:28;-1.00;99.90
7174;DHT22;3628;48.654;8.932;2023-03-01T04:36:54;-0.90;99.90
7174;DHT22;3628;48.654;8.932;2023-03-01T04:39:19;-0.90;99.90
7174;DHT22;3628;48.654;8.932;2023-03-01T04:41:45;-0.80;99.90
7174;DHT22;3628;48.654;8.932;2023-03-01T04:44:10;-0.70;99.90
7174;DHT22;3628;48.654;8.932;2023-03-01T04:46:36;-0.70;99.90
7174;DHT22;3628;48.654;8.932;2023-03-01T04:49:02;-0.80;99.90
7174;DHT22;3628;48.654;8.932;2023-03-01T04:51:28;-0.80;99.90
7174;DHT22;3628;48.654;8.932;2023-03-01T04:53:54;-0.80;99.90
7174;DHT22;3628;48.654;8.932;2023-03-01T04:56:19;-0.70;99.90
7174;DHT22;3628;48.654;8.932;2023-03-01T04:58:46;-0.60;99.90
7174;DHT22;3628;48.654;8.932;2023-03-01T05:01:14;-0.60;99.90
7174;DHT22;3628;48.654;8.932;2023-03-01T05:03:48;-0.60;99.90
7174;DHT22;3628;48.654;8.932;2023-03-01T05:06:14;-0.60;99.90
7174;DHT22;3628;48.654;8.932;2023-03-01T05:08:40;-0.50;99.90
7174;DHT22;3628;48.654;8.932;2023-03-01T05:11:06;-0.50;99.90
7174;DHT22;3628;48.654;8.932;2023-03-01T05:13:34;-0.40;99.90
7174;DHT22;3628;48.654;8.932;2023-03-01T05:16:01;-0.40;99.90
7174;DHT22;3628;48.654;8.932;2023-03-01T05:18:29;-0.40;99.90
7174;DHT22;3628;48.654;8.932;2023-03-01T05:21:01;-0.40;99.90
7174;DHT22;3628;48.654;8.932;2023-03-01T05:23:29;-0.50;99.90
7174;DHT22;3628;48.654;8.932;2023-03-01T05:25:58;-0.60;99.90
7174;DHT22;3628;48.654;8.932;2023-03-01T05:28:24;-0.60;99.90
7174;DHT22;3628;48.654;8.932;2023-03-01T05:30:51;-0.60;99.90
7174;DHT22;3628;48.654;8.932;2023-03-01T05:33:17;-0.50;99.90
7174;DHT22;3628;48.654;8.932;2023-03-01T05:35:43;-0.60;99.90
7174;DHT22;3628;48.654;8.932;2023-03-01T05:38:10;-0.60;99.90
7174;DHT22;3628;48.654;8.932;2023-03-01T05:40:43;-0.50;99.90
7174;DHT22;3628;48.654;8.932;2023-03-01T05:43:10;-0.50;99.90
7174;DHT22;3628;48.654;8.932;2023-03-01T05:45:37;-0.50;99.90
7174;DHT22;3628;48.654;8.932;2023-03-01T05:48:03;-0.50;99.90
7174;DHT22;3628;48.654;8.932;2023-03-01T05:50:32;-0.50;99.90
7174;DHT22;3628;48.654;8.932;2023-03-01T05:55:26;-0.50;99.90
7174;DHT22;3628;48.654;8.932;2023-03-01T05:57:52;-0.50;99.90
7174;DHT22;3628;48.654;8.932;2023-03-01T06:00:19;-0.50;99.90
7174;DHT22;3628;48.654;8.932;2023-03-01T06:02:45;-0.50;99.90
7174;DHT22;3628;48.654;8.932;2023-03-01T06:05:12;-0.60;99.90
7174;DHT22;3628;48.654;8.932;2023-03-01T06:07:38;-0.60;99.90
7174;DHT22;3628;48.654;8.932;2023-03-01T06:10:05;-0.60;99.90
7174;DHT22;3628;48.654;8.932;2023-03-01T06:12:33;-0.70;99.90
7174;DHT22;3628;48.654;8.932;2023-03-01T06:14:59;-0.60;99.90
7174;DHT22;3628;48.654;8.932;2023-03-01T06:17:25;-0.60;99.90
7174;DHT22;3628;48.654;8.932;2023-03-01T06:19:50;-0.60;99.90
7174;DHT22;3628;48.654;8.932;2023-03-01T06:22:16;-0.50;99.90
7174;DHT22;3628;48.654;8.932;2023-03-01T06:24:41;-0.50;99.90
7174;DHT22;3628;48.654;8.932;2023-03-01T06:27:07;-0.60;99.90
7174;DHT22;3628;48.654;8.932;2023-03-01T06:29:32;-0.50;99.90
7174;DHT22;3628;48.654;8.932;2023-03-01T06:31:58;-0.60;99.90
7174;DHT22;3628;48.654;8.932;2023-03-01T06:34:23;-0.50;99.90
7174;DHT22;3628;48.654;8.932;2023-03-01T06:36:49;-0.50;99.90
7174;DHT22;3628;48.654;8.932;2023-03-01T06:39:14;-0.50;99.90
7174;DHT22;3628;48.654;8.932;2023-03-01T06:41:41;-0.40;99.90
7174;DHT22;3628;48.654;8.932;2023-03-01T06:44:07;-0.40;99.90
7174;DHT22;3628;48.654;8.932;2023-03-01T06:46:32;-0.40;99.90
7174;DHT22;3628;48.654;8.932;2023-03-01T06:48:58;-0.40;99.90
7174;DHT22;3628;48.654;8.932;2023-03-01T06:51:23;-0.40;99.90
7174;DHT22;3628;48.654;8.932;2023-03-01T06:53:49;-0.40;99.90
7174;DHT22;3628;48.654;8.932;2023-03-01T06:56:14;-0.40;99.90
7174;DHT22;3628;48.654;8.932;2023-03-01T06:58:40;-0.40;99.90
7174;DHT22;3628;48.654;8.932;2023-03-01T07:01:07;-0.40;99.90
7174;DHT22;3628;48.654;8.932;2023-03-01T07:03:33;-0.30;99.90
7174;DHT22;3628;48.654;8.932;2023-03-01T07:05:58;-0.30;99.90
7174;DHT22;3628;48.654;8.932;2023-03-01T07:08:24;-0.30;99.90
7174;DHT22;3628;48.654;8.932;2023-03-01T07:10:55;-0.20;99.90
7174;DHT22;3628;48.654;8.932;2023-03-01T07:13:21;-0.20;99.90
7174;DHT22;3628;48.654;8.932;2023-03-01T07:15:46;-0.20;99.90
7174;DHT22;3628;48.654;8.932;2023-03-01T07:18:12;-0.20;99.90
7174;DHT22;3628;48.654;8.932;2023-03-01T07:20:37;-0.20;99.90
7174;DHT22;3628;48.654;8.932;2023-03-01T07:23:03;-0.20;99.90
7174;DHT22;3628;48.654;8.932;2023-03-01T07:25:30;-0.20;99.90
7174;DHT22;3628;48.654;8.932;2023-03-01T07:27:56;-0.20;99.90
7174;DHT22;3628;48.654;8.932;2023-03-01T07:30:21;-0.20;99.90
7174;DHT22;3628;48.654;8.932;2023-03-01T07:32:47;-0.10;99.90
7174;DHT22;3628;48.654;8.932;2023-03-01T07:35:13;-0.20;99.90
7174;DHT22;3628;48.654;8.932;2023-03-01T07:37:40;-0.10;99.90
7174;DHT22;3628;48.654;8.932;2023-03-01T07:40:06;-0.10;99.90
7174;DHT22;3628;48.654;8.932;2023-03-01T07:42:32;0.10;99.90
7174;DHT22;3628;48.654;8.932;2023-03-01T07:44:57;0.10;99.90
7174;DHT22;3628;48.654;8.932;2023-03-01T07:47:22;0.20;99.90
7174;DHT22;3628;48.654;8.932;2023-03-01T07:49:48;0.20;99.90
7174;DHT22;3628;48.654;8.932;2023-03-01T07:52:13;0.20;99.90
7174;DHT22;3628;48.654;8.932;2023-03-01T07:54:41;0.30;99.90
7174;DHT22;3628;48.654;8.932;2023-03-01T07:57:07;0.40;99.90
7174;DHT22;3628;48.654;8.932;2023-03-01T07:59:33;0.40;99.90
7174;DHT22;3628;48.654;8.932;2023-03-01T08:02:00;0.40;99.90
7174;DHT22;3628;48.654;8.932;2023-03-01T08:04:25;0.40;99.90
7174;DHT22;3628;48.654;8.932;2023-03-01T08:06:52;0.50;99.90
7174;DHT22;3628;48.654;8.932;2023-03-01T08:09:18;0.50;99.90
7174;DHT22;3628;48.654;8.932;2023-03-01T08:11:43;0.50;99.90
7174;DHT22;3628;48.654;8.932;2023-03-01T08:14:09;0.50;99.90
7174;DHT22;3628;48.654;8.932;2023-03-01T08:16:36;0.50;99.90
7174;DHT22;3628;48.654;8.932;2023-03-01T08:19:06;0.50;99.90
7174;DHT22;3628;48.654;8.932;2023-03-01T08:21:32;0.60;99.90
7174;DHT22;3628;48.654;8.932;2023-03-01T08:24:00;0.60;99.90
7174;DHT22;3628;48.654;8.932;2023-03-01T08:26:26;0.70;99.90
7174;DHT22;3628;48.654;8.932;2023-03-01T08:28:52;0.80;99.90
7174;DHT22;3628;48.654;8.932;2023-03-01T08:31:23;0.90;99.90
7174;DHT22;3628;48.654;8.932;2023-03-01T08:33:51;1.10;99.90
7174;DHT22;3628;48.654;8.932;2023-03-01T08:36:21;1.10;99.90
7174;DHT22;3628;48.654;8.932;2023-03-01T08:38:47;1.20;99.90
7174;DHT22;3628;48.654;8.932;2023-03-01T08:41:13;1.30;99.90
7174;DHT22;3628;48.654;8.932;2023-03-01T08:43:39;1.40;99.90
7174;DHT22;3628;48.654;8.932;2023-03-01T08:46:05;1.40;99.90
7174;DHT22;3628;48.654;8.932;2023-03-01T08:48:31;1.50;99.90
7174;DHT22;3628;48.654;8.932;2023-03-01T08:50:56;1.60;99.90
7174;DHT22;3628;48.654;8.932;2023-03-01T08:53:22;1.90;99.90
7174;DHT22;3628;48.654;8.932;2023-03-01T08:55:47;2.00;99.90
7174;DHT22;3628;48.654;8.932;2023-03-01T08:58:13;2.30;99.90
7174;DHT22;3628;48.654;8.932;2023-03-01T09:00:39;2.50;99.90
7174;DHT22;3628;48.654;8.932;2023-03-01T09:03:05;2.70;99.90
7174;DHT22;3628;48.654;8.932;2023-03-01T09:05:32;3.00;99.90
7174;DHT22;3628;48.654;8.932;2023-03-01T09:07:58;3.30;99.90
7174;DHT22;3628;48.654;8.932;2023-03-01T09:10:24;3.40;99.90
7174;DHT22;3628;48.654;8.932;2023-03-01T09:12:50;3.50;99.90
7174;DHT22;3628;48.654;8.932;2023-03-01T09:15:16;3.60;99.90
7174;DHT22;3628;48.654;8.932;2023-03-01T09:17:42;3.60;99.90
7174;DHT22;3628;48.654;8.932;2023-03-01T09:20:08;3.80;99.90
7174;DHT22;3628;48.654;8.932;2023-03-01T09:22:34;3.60;99.90
7174;DHT22;3628;48.654;8.932;2023-03-01T09:25:00;3.60;99.90
7174;DHT22;3628;48.654;8.932;2023-03-01T09:27:26;3.40;99.90
7174;DHT22;3628;48.654;8.932;2023-03-01T09:29:51;3.40;99.90
7174;DHT22;3628;48.654;8.932;2023-03-01T09:32:17;3.50;99.90
7174;DHT22;3628;48.654;8.932;2023-03-01T09:34:43;3.50;99.90
7174;DHT22;3628;48.654;8.932;2023-03-01T09:37:28;3.90;99.90
7174;DHT22;3628;48.654;8.932;2023-03-01T09:39:54;4.20;99.90
7174;DHT22;3628;48.654;8.932;2023-03-01T09:42:20;4.30;99.90
7174;DHT22;3628;48.654;8.932;2023-03-01T09:44:59;4.30;99.90
7174;DHT22;3628;48.654;8.932;2023-03-01T09:47:31;4.40;99.90
7174;DHT22;3628;48.654;8.932;2023-03-01T09:50:17;4.60;99.90
7174;DHT22;3628;48.654;8.932;2023-03-01T09:52:47;4.70;99.90
7174;DHT22;3628;48.654;8.932;2023-03-01T09:55:20;4.60;99.90
7174;DHT22;3628;48.654;8.932;2023-03-01T09:57:53;4.60;99.90
7174;DHT22;3628;48.654;8.932;2023-03-01T10:10:53;4.90;99.90
7174;DHT22;3628;48.654;8.932;2023-03-01T10:13:31;5.10;99.90
7174;DHT22;3628;48.654;8.932;2023-03-01T10:16:10;5.40;99.90
7174;DHT22;3628;48.654;8.932;2023-03-01T10:18:37;5.60;99.90
7174;DHT22;3628;48.654;8.932;2023-03-01T10:21:20;5.60;99.90
7174;DHT22;3628;48.654;8.932;2023-03-01T10:23:49;5.80;99.90
7174;DHT22;3628;48.654;8.932;2023-03-01T10:26:38;5.70;99.90
7174;DHT22;3628;48.654;8.932;2023-03-01T10:29:10;5.70;99.90
7174;DHT22;3628;48.654;8.932;2023-03-01T10:31:44;5.70;99.90
7174;DHT22;3628;48.654;8.932;2023-03-01T10:34:20;5.90;99.90
7174;DHT22;3628;48.654;8.932;2023-03-01T10:36:51;6.30;99.90
7174;DHT22;3628;48.654;8.932;2023-03-01T10:39:23;6.60;99.90
7174;DHT22;3628;48.654;8.932;2023-03-01T10:42:19;6.80;99.90
7174;DHT22;3628;48.654;8.932;2023-03-01T10:44:47;6.60;99.90
7174;DHT22;3628;48.654;8.932;2023-03-01T10:47:16;6.60;99.90
7174;DHT22;3628;48.654;8.932;2023-03-01T10:50:03;6.80;99.90
7174;DHT22;3628;48.654;8.932;2023-03-01T10:52:31;7.00;99.90
7174;DHT22;3628;48.654;8.932;2023-03-01T10:55:03;7.00;98.20
7174;DHT22;3628;48.654;8.932;2023-03-01T10:57:33;6.90;99.90
7174;DHT22;3628;48.654;8.932;2023-03-01T11:03:01;6.50;97.50
7174;DHT22;3628;48.654;8.932;2023-03-01T11:05:27;6.20;99.60
7174;DHT22;3628;48.654;8.932;2023-03-01T11:07:57;6.30;98.60
7174;DHT22;3628;48.654;8.932;2023-03-01T11:10:28;6.30;99.30
7174;DHT22;3628;48.654;8.932;2023-03-01T11:13:23;6.30;99.00
7174;DHT22;3628;48.654;8.932;2023-03-01T11:16:03;6.30;98.40
7174;DHT22;3628;48.654;8.932;2023-03-01T11:18:30;6.20;98.50
7174;DHT22;3628;48.654;8.932;2023-03-01T11:20:58;6.40;99.00
7174;DHT22;3628;48.654;8.932;2023-03-01T11:23:25;6.40;97.80
7174;DHT22;3628;48.654;8.932;2023-03-01T11:25:58;6.40;97.30
7174;DHT22;3628;48.654;8.932;2023-03-01T11:28:27;6.60;98.30
7174;DHT22;3628;48.654;8.932;2023-03-01T11:31:01;6.50;98.10
7174;DHT22;3628;48.654;8.932;2023-03-01T11:38:35;6.50;97.60
7174;DHT22;3628;48.654;8.932;2023-03-01T11:41:08;6.50;97.30
7174;DHT22;3628;48.654;8.932;2023-03-01T11:46:33;6.40;97.00
7174;DHT22;3628;48.654;8.932;2023-03-01T12:00:12;6.80;96.40
7174;DHT22;3628;48.654;8.932;2023-03-01T12:03:22;6.90;96.00
7174;DHT22;3628;48.654;8.932;2023-03-01T12:11:33;6.90;95.30
7174;DHT22;3628;48.654;8.932;2023-03-01T12:17:04;6.70;96.20
7174;DHT22;3628;48.654;8.932;2023-03-01T12:22:35;6.90;97.00
7174;DHT22;3628;48.654;8.932;2023-03-01T12:25:16;6.80;95.40
7174;DHT22;3628;48.654;8.932;2023-03-01T12:30:26;6.70;95.40
7174;DHT22;3628;48.654;8.932;2023-03-01T12:36:21;7.00;96.90
7174;DHT22;3628;48.654;8.932;2023-03-01T12:39:03;7.10;96.70
7174;DHT22;3628;48.654;8.932;2023-03-01T12:45:03;7.00;94.20
7174;DHT22;3628;48.654;8.932;2023-03-01T12:50:42;7.30;94.60
7174;DHT22;3628;48.654;8.932;2023-03-01T12:53:23;7.20;95.90
7174;DHT22;3628;48.654;8.932;2023-03-01T12:55:51;7.20;95.10
7174;DHT22;3628;48.654;8.932;2023-03-01T13:04:20;7.30;93.60
7174;DHT22;3628;48.654;8.932;2023-03-01T13:07:00;7.00;93.60
7174;DHT22;3628;48.654;8.932;2023-03-01T13:12:52;7.10;93.10
7174;DHT22;3628;48.654;8.932;2023-03-01T13:23:04;7.60;92.70
7174;DHT22;3628;48.654;8.932;2023-03-01T13:25:30;7.60;92.50
7174;DHT22;3628;48.654;8.932;2023-03-01T13:30:56;7.60;93.30
7174;DHT22;3628;48.654;8.932;2023-03-01T13:35:55;7.80;93.30
7174;DHT22;3628;48.654;8.932;2023-03-01T13:46:45;7.80;90.80
7174;DHT22;3628;48.654;8.932;2023-03-01T13:49:18;7.80;90.90
7174;DHT22;3628;48.654;8.932;2023-03-01T13:51:46;7.80;91.20
7174;DHT22;3628;48.654;8.932;2023-03-01T13:54:12;7.80;91.00
7174;DHT22;3628;48.654;8.932;2023-03-01T13:56:39;7.90;91.20
7174;DHT22;3628;48.654;8.932;2023-03-01T13:59:17;8.10;92.80
7174;DHT22;3628;48.654;8.932;2023-03-01T14:01:43;8.20;92.30
7174;DHT22;3628;48.654;8.932;2023-03-01T14:06:51;8.20;90.70
7174;DHT22;3628;48.654;8.932;2023-03-01T14:09:24;7.90;91.20
7174;DHT22;3628;48.654;8.932;2023-03-01T14:12:22;8.00;91.30
7174;DHT22;3628;48.654;8.932;2023-03-01T14:17:47;8.30;91.00
7174;DHT22;3628;48.654;8.932;2023-03-01T14:20:20;8.20;91.20
7174;DHT22;3628;48.654;8.932;2023-03-01T14:22:47;8.20;92.10
7174;DHT22;3628;48.654;8.932;2023-03-01T14:25:26;8.20;91.80
7174;DHT22;3628;48.654;8.932;2023-03-01T14:33:02;8.00;92.30
7174;DHT22;3628;48.654;8.932;2023-03-01T14:35:33;7.90;91.60
7174;DHT22;3628;48.654;8.932;2023-03-01T14:37:59;7.70;91.90
7174;DHT22;3628;48.654;8.932;2023-03-01T14:42:56;7.70;91.00
7174;DHT22;3628;48.654;8.932;2023-03-01T14:45:24;7.60;91.80
7174;DHT22;3628;48.654;8.932;2023-03-01T14:47:50;7.60;91.80
7174;DHT22;3628;48.654;8.932;2023-03-01T14:50:31;7.60;92.40
7174;DHT22;3628;48.654;8.932;2023-03-01T14:53:07;7.50;92.60
7174;DHT22;3628;48.654;8.932;2023-03-01T14:55:44;7.50;91.80
7174;DHT22;3628;48.654;8.932;2023-03-01T14:58:15;7.50;91.80
7174;DHT22;3628;48.654;8.932;2023-03-01T15:00:58;7.50;92.40
7174;DHT22;3628;48.654;8.932;2023-03-01T15:03:40;7.50;92.50
7174;DHT22;3628;48.654;8.932;2023-03-01T15:06:08;7.50;91.80
7174;DHT22;3628;48.654;8.932;2023-03-01T15:08:35;7.40;92.20
7174;DHT22;3628;48.654;8.932;2023-03-01T15:11:05;7.40;92.90
7174;DHT22;3628;48.654;8.932;2023-03-01T15:13:33;7.30;92.20
7174;DHT22;3628;48.654;8.932;2023-03-01T15:21:24;7.30;93.00
7174;DHT22;3628;48.654;8.932;2023-03-01T15:23:59;7.20;92.70
7174;DHT22;3628;48.654;8.932;2023-03-01T15:26:30;7.20;92.60
7174;DHT22;3628;48.654;8.932;2023-03-01T15:28:58;7.10;93.10
7174;DHT22;3628;48.654;8.932;2023-03-01T15:31:27;7.00;93.50
7174;DHT22;3628;48.654;8.932;2023-03-01T15:34:28;7.10;93.60
7174;DHT22;3628;48.654;8.932;2023-03-01T15:36:54;7.10;94.00
7174;DHT22;3628;48.654;8.932;2023-03-01T15:42:13;7.10;93.70
7174;DHT22;3628;48.654;8.932;2023-03-01T15:47:34;7.00;93.80
7174;DHT22;3628;48.654;8.932;2023-03-01T15:50:01;6.90;94.50
7174;DHT22;3628;48.654;8.932;2023-03-01T15:52:32;6.90;94.80
7174;DHT22;3628;48.654;8.932;2023-03-01T15:55:05;6.80;94.40
7174;DHT22;3628;48.654;8.932;2023-03-01T15:57:31;6.80;94.80
7174;DHT22;3628;48.654;8.932;2023-03-01T15:59:57;6.60;94.70
7174;DHT22;3628;48.654;8.932;2023-03-01T16:02:23;6.50;95.30
7174;DHT22;3628;48.654;8.932;2023-03-01T16:04:50;6.50;95.70
7174;DHT22;3628;48.654;8.932;2023-03-01T16:07:16;6.40;95.80
7174;DHT22;3628;48.654;8.932;2023-03-01T16:09:42;6.30;96.30
7174;DHT22;3628;48.654;8.932;2023-03-01T16:12:13;6.20;96.20
7174;DHT22;3628;48.654;8.932;2023-03-01T16:14:39;6.20;96.50
7174;DHT22;3628;48.654;8.932;2023-03-01T16:17:04;6.10;96.40
7174;DHT22;3628;48.654;8.932;2023-03-01T16:19:30;6.10;97.30
7174;DHT22;3628;48.654;8.932;2023-03-01T16:21:56;6.10;97.00
7174;DHT22;3628;48.654;8.932;2023-03-01T16:24:21;6.00;97.40
7174;DHT22;3628;48.654;8.932;2023-03-01T16:26:47;6.00;97.50
7174;DHT22;3628;48.654;8.932;2023-03-01T16:29:12;6.00;97.90
7174;DHT22;3628;48.654;8.932;2023-03-01T16:31:38;6.00;97.50
7174;DHT22;3628;48.654;8.932;2023-03-01T16:34:04;6.00;97.00
7174;DHT22;3628;48.654;8.932;2023-03-01T16:36:29;6.00;96.60
7174;DHT22;3628;48.654;8.932;2023-03-01T16:38:58;6.00;97.00
7174;DHT22;3628;48.654;8.932;2023-03-01T16:41:24;6.00;96.80
7174;DHT22;3628;48.654;8.932;2023-03-01T16:43:50;5.90;97.00
7174;DHT22;3628;48.654;8.932;2023-03-01T16:46:25;5.80;97.70
7174;DHT22;3628;48.654;8.932;2023-03-01T16:48:51;5.70;97.80
7174;DHT22;3628;48.654;8.932;2023-03-01T16:51:18;5.60;98.20
7174;DHT22;3628;48.654;8.932;2023-03-01T16:53:44;5.50;98.50
7174;DHT22;3628;48.654;8.932;2023-03-01T16:56:12;5.40;98.50
7174;DHT22;3628;48.654;8.932;2023-03-01T16:58:38;5.40;99.00
7174;DHT22;3628;48.654;8.932;2023-03-01T17:01:16;5.20;99.80
7174;DHT22;3628;48.654;8.932;2023-03-01T17:03:44;5.20;99.90
7174;DHT22;3628;48.654;8.932;2023-03-01T17:06:14;5.10;99.90
7174;DHT22;3628;48.654;8.932;2023-03-01T17:08:40;5.00;99.90
7174;DHT22;3628;48.654;8.932;2023-03-01T17:11:07;4.90;99.90
7174;DHT22;3628;48.654;8.932;2023-03-01T17:13:34;4.90;99.90
7174;DHT22;3628;48.654;8.932;2023-03-01T17:16:01;4.90;99.90
7174;DHT22;3628;48.654;8.932;2023-03-01T17:18:27;4.80;99.90
7174;DHT22;3628;48.654;8.932;2023-03-01T17:20:52;4.80;99.90
7174;DHT22;3628;48.654;8.932;2023-03-01T17:23:18;4.70;99.90
7174;DHT22;3628;48.654;8.932;2023-03-01T17:25:44;4.70;99.90
7174;DHT22;3628;48.654;8.932;2023-03-01T17:28:11;4.60;99.90
7174;DHT22;3628;48.654;8.932;2023-03-01T17:30:38;4.50;99.90
7174;DHT22;3628;48.654;8.932;2023-03-01T17:33:06;4.50;99.90
7174;DHT22;3628;48.654;8.932;2023-03-01T17:35:31;4.40;99.90
7174;DHT22;3628;48.654;8.932;2023-03-01T17:38:01;4.30;99.90
7174;DHT22;3628;48.654;8.932;2023-03-01T17:40:27;4.20;99.90
7174;DHT22;3628;48.654;8.932;2023-03-01T17:42:52;4.20;99.90
7174;DHT22;3628;48.654;8.932;2023-03-01T17:45:21;4.10;99.90
7174;DHT22;3628;48.654;8.932;2023-03-01T17:47:47;4.10;99.90
7174;DHT22;3628;48.654;8.932;2023-03-01T17:50:13;4.00;99.90
7174;DHT22;3628;48.654;8.932;2023-03-01T17:52:39;3.90;99.90
7174;DHT22;3628;48.654;8.932;2023-03-01T17:55:06;3.90;99.90
7174;DHT22;3628;48.654;8.932;2023-03-01T17:57:32;3.80;99.90
7174;DHT22;3628;48.654;8.932;2023-03-01T17:59:58;3.80;99.90
7174;DHT22;3628;48.654;8.932;2023-03-01T18:02:23;3.70;99.90
7174;DHT22;3628;48.654;8.932;2023-03-01T18:04:51;3.70;99.90
7174;DHT22;3628;48.654;8.932;2023-03-01T18:07:17;3.60;99.90
7174;DHT22;3628;48.654;8.932;2023-03-01T18:09:43;3.60;99.90
7174;DHT22;3628;48.654;8.932;2023-03-01T18:12:09;3.50;99.90
7174;DHT22;3628;48.654;8.932;2023-03-01T18:14:35;3.50;99.90
7174;DHT22;3628;48.654;8.932;2023-03-01T18:17:01;3.50;99.90
7174;DHT22;3628;48.654;8.932;2023-03-01T18:19:30;3.40;99.90
7174;DHT22;3628;48.654;8.932;2023-03-01T18:21:56;3.40;99.90
7174;DHT22;3628;48.654;8.932;2023-03-01T18:24:22;3.40;99.90